createdAt,value
2022-10-17T00:01:08.879Z,17.80
2022-10-17T00:03:38.273Z,20.10
2022-10-17T00:06:08.316Z,19.90
2022-10-17T00:08:36.985Z,19.40
2022-10-17T00:11:08.648Z,16.30
2022-10-17T00:13:36.900Z,16.80
2022-10-17T00:16:06.635Z,22.20
2022-10-17T00:18:35.016Z,17.00
2022-10-17T00:21:03.677Z,17.80
2022-10-17T00:23:33.154Z,19.80
2022-10-17T00:26:03.471Z,21.40
2022-10-17T00:28:32.751Z,22.50
2022-10-17T00:31:03.409Z,19.50
2022-10-17T00:33:32.725Z,21.40
2022-10-17T00:36:06.733Z,19.10
2022-10-17T00:38:37.243Z,19.90
2022-10-17T00:41:06.221Z,19.40
2022-10-17T00:43:57.267Z,19.90
2022-10-17T00:46:29.607Z,20.00
2022-10-17T00:49:04.313Z,15.90
2022-10-17T00:51:41.713Z,22.60
2022-10-17T00:54:11.308Z,17.90
2022-10-17T00:56:40.329Z,20.30
2022-10-17T00:59:11.011Z,18.80
2022-10-17T01:01:41.307Z,23.60
2022-10-17T01:04:10.267Z,19.00
2022-10-17T01:06:40.839Z,19.40
2022-10-17T01:09:09.613Z,20.00
2022-10-17T01:11:45.431Z,16.70
2022-10-17T01:14:25.374Z,16.00
2022-10-17T01:17:07.888Z,17.50
2022-10-17T01:19:58.005Z,22.80
2022-10-17T01:22:33.316Z,20.50
2022-10-17T01:25:27.692Z,20.50
2022-10-17T01:28:18.545Z,20.20
2022-10-17T01:31:08.704Z,20.40
2022-10-17T01:33:49.692Z,22.60
2022-10-17T01:36:32.187Z,21.10
2022-10-17T01:39:10.953Z,23.90
2022-10-17T01:41:45.767Z,22.00
2022-10-17T01:44:19.543Z,27.60
2022-10-17T01:46:51.944Z,27.10
2022-10-17T01:49:25.258Z,20.70
2022-10-17T01:52:01.043Z,19.80
2022-10-17T01:54:33.437Z,21.50
2022-10-17T01:57:07.293Z,19.50
2022-10-17T01:59:38.949Z,21.30
2022-10-17T02:02:09.562Z,22.70
2022-10-17T02:04:40.216Z,20.30
2022-10-17T02:07:09.911Z,20.50
2022-10-17T02:09:39.706Z,21.10
2022-10-17T02:12:24.966Z,16.70
2022-10-17T02:15:10.187Z,20.40
2022-10-17T02:17:48.279Z,19.00
2022-10-17T02:20:23.950Z,19.30
2022-10-17T02:22:57.188Z,20.60
2022-10-17T02:25:36.057Z,23.70
2022-10-17T02:28:15.156Z,22.90
2022-10-17T02:30:49.925Z,22.90
2022-10-17T02:33:23.274Z,20.60
2022-10-17T02:35:59.056Z,19.40
2022-10-17T02:38:30.378Z,22.90
2022-10-17T02:41:01.687Z,18.10
2022-10-17T02:43:31.077Z,16.90
2022-10-17T02:46:00.852Z,20.60
2022-10-17T02:48:36.868Z,22.10
2022-10-17T02:51:11.011Z,19.30
2022-10-17T02:53:50.449Z,21.40
2022-10-17T02:56:20.980Z,22.90
2022-10-17T02:58:53.048Z,19.90
2022-10-17T03:01:21.876Z,19.20
2022-10-17T03:03:50.519Z,18.40
2022-10-17T03:06:18.762Z,20.00
2022-10-17T03:08:47.406Z,17.60
2022-10-17T03:11:15.765Z,19.00
2022-10-17T03:13:44.295Z,20.10
2022-10-17T03:16:12.472Z,18.80
2022-10-17T03:18:41.175Z,20.10
2022-10-17T03:21:10.300Z,18.00
2022-10-17T03:23:39.089Z,20.70
2022-10-17T03:26:09.204Z,19.00
2022-10-17T03:28:37.962Z,22.50
2022-10-17T03:31:12.887Z,19.80
2022-10-17T03:33:42.526Z,21.40
2022-10-17T03:36:14.185Z,19.20
2022-10-17T03:38:44.520Z,21.80
2022-10-17T03:41:14.048Z,24.00
2022-10-17T03:43:43.859Z,22.20
2022-10-17T03:46:19.494Z,22.60
2022-10-17T03:49:02.343Z,23.00
2022-10-17T03:51:32.457Z,22.80
2022-10-17T03:54:04.167Z,21.80
2022-10-17T03:56:32.462Z,20.90
2022-10-17T03:59:04.598Z,18.50
2022-10-17T04:01:37.971Z,22.60
2022-10-17T04:04:09.423Z,22.60
2022-10-17T04:06:38.398Z,20.80
2022-10-17T04:09:07.515Z,20.90
2022-10-17T04:11:59.643Z,28.00
2022-10-17T04:14:28.735Z,20.40
2022-10-17T04:16:58.426Z,25.60
2022-10-17T04:19:27.453Z,22.50
2022-10-17T04:21:55.725Z,19.70
2022-10-17T04:24:25.291Z,23.50
2022-10-17T04:27:06.015Z,24.70
2022-10-17T04:29:37.279Z,20.90
2022-10-17T04:32:18.818Z,23.00
2022-10-17T04:34:51.520Z,27.20
2022-10-17T04:37:21.387Z,25.60
2022-10-17T04:39:50.841Z,22.80
2022-10-17T04:42:20.414Z,28.20
2022-10-17T04:44:49.804Z,32.70
2022-10-17T04:47:19.098Z,22.90
2022-10-17T04:49:47.813Z,25.30
2022-10-17T04:52:17.490Z,29.20
2022-10-17T04:54:47.662Z,25.00
2022-10-17T04:57:16.209Z,29.50
2022-10-17T04:59:51.575Z,30.80
2022-10-17T05:02:23.955Z,27.30
2022-10-17T05:04:52.663Z,29.30
2022-10-17T05:07:21.823Z,32.50
2022-10-17T05:10:02.308Z,28.90
2022-10-17T05:12:31.155Z,28.10
2022-10-17T05:15:01.285Z,30.10
2022-10-17T05:17:31.007Z,23.80
2022-10-17T05:20:00.122Z,22.10
2022-10-17T05:22:30.295Z,26.60
2022-10-17T05:25:00.184Z,30.70
2022-10-17T05:27:28.597Z,26.90
2022-10-17T05:30:00.380Z,27.40
2022-10-17T05:32:34.293Z,26.00
2022-10-17T05:35:04.118Z,23.90
2022-10-17T05:37:33.493Z,28.90
2022-10-17T05:40:04.881Z,22.70
2022-10-17T05:42:33.892Z,24.40
2022-10-17T05:45:03.952Z,24.90
2022-10-17T05:47:32.576Z,27.40
2022-10-17T05:50:01.475Z,27.60
2022-10-17T05:52:35.675Z,24.80
2022-10-17T05:55:10.877Z,28.00
2022-10-17T05:57:40.131Z,26.40
2022-10-17T06:00:15.451Z,22.70
2022-10-17T06:02:45.955Z,22.20
2022-10-17T06:05:17.029Z,26.60
2022-10-17T06:07:48.387Z,20.90
2022-10-17T06:10:20.005Z,24.90
2022-10-17T06:12:48.475Z,24.00
2022-10-17T06:15:18.340Z,28.60
2022-10-17T06:17:52.210Z,23.30
2022-10-17T06:20:21.604Z,29.80
2022-10-17T06:22:50.129Z,27.40
2022-10-17T06:25:28.853Z,22.90
2022-10-17T06:28:00.478Z,28.60
2022-10-17T06:30:30.292Z,28.20
2022-10-17T06:33:02.383Z,24.60
2022-10-17T06:35:31.312Z,29.40
2022-10-17T06:38:01.227Z,30.20
2022-10-17T06:40:31.102Z,31.20
2022-10-17T06:43:02.146Z,34.90
2022-10-17T06:46:01.245Z,33.10
2022-10-17T06:48:38.016Z,38.70
2022-10-17T06:51:24.225Z,36.80
2022-10-17T06:53:58.853Z,32.60
2022-10-17T06:57:01.751Z,40.30
2022-10-17T06:59:29.979Z,38.40
2022-10-17T07:02:19.801Z,32.30
2022-10-17T07:04:48.083Z,31.80
2022-10-17T07:07:16.312Z,32.60
2022-10-17T07:09:44.911Z,37.20
2022-10-17T07:12:13.278Z,33.90
2022-10-17T07:14:47.191Z,31.50
2022-10-17T07:17:15.566Z,35.00
2022-10-17T07:19:44.549Z,33.20
2022-10-17T07:22:13.480Z,33.10
2022-10-17T07:24:44.923Z,33.70
2022-10-17T07:27:19.319Z,32.50
2022-10-17T07:29:48.246Z,26.00
2022-10-17T07:32:22.136Z,25.30
2022-10-17T07:34:50.429Z,32.90
2022-10-17T07:37:19.495Z,28.20
2022-10-17T07:39:55.911Z,28.00
2022-10-17T07:42:24.342Z,26.50
2022-10-17T07:44:52.764Z,27.20
2022-10-17T07:47:24.396Z,24.20
2022-10-17T07:49:54.042Z,23.80
2022-10-17T07:52:22.675Z,24.20
2022-10-17T07:54:50.957Z,22.60
2022-10-17T07:57:19.137Z,29.00
2022-10-17T07:59:47.695Z,25.50
2022-10-17T08:02:21.859Z,25.20
2022-10-17T08:04:50.450Z,23.60
2022-10-17T08:07:24.133Z,21.90
2022-10-17T08:09:55.412Z,27.30
2022-10-17T08:12:26.058Z,24.80
2022-10-17T08:14:54.200Z,24.40
2022-10-17T08:17:22.864Z,27.80
2022-10-17T08:19:51.152Z,25.30
2022-10-17T08:22:19.457Z,23.80
2022-10-17T08:24:47.909Z,28.00
2022-10-17T08:27:21.150Z,24.90
2022-10-17T08:29:52.369Z,23.40
2022-10-17T08:32:21.785Z,22.60
2022-10-17T08:34:50.248Z,30.60
2022-10-17T08:37:18.787Z,24.30
2022-10-17T08:39:46.960Z,26.50
2022-10-17T08:42:35.921Z,23.20
2022-10-17T08:45:14.093Z,24.60
2022-10-17T08:47:45.213Z,23.90
2022-10-17T08:50:18.167Z,20.40
2022-10-17T08:52:52.236Z,25.50
2022-10-17T08:55:40.012Z,23.60
2022-10-17T08:58:15.252Z,19.00
2022-10-17T09:00:49.768Z,22.20
2022-10-17T09:03:31.707Z,20.30
2022-10-17T09:06:12.746Z,16.90
2022-10-17T09:08:49.862Z,16.50
2022-10-17T09:11:34.122Z,17.80
2022-10-17T09:14:18.178Z,23.60
2022-10-17T09:17:04.231Z,17.20
2022-10-17T09:19:36.120Z,17.00
2022-10-17T09:22:09.273Z,18.60
2022-10-17T09:24:46.063Z,18.70
2022-10-17T09:27:24.002Z,16.30
2022-10-17T09:30:21.487Z,20.00
2022-10-17T09:35:29.998Z,18.00
2022-10-17T09:38:00.088Z,18.00
2022-10-17T09:40:34.726Z,16.10
2022-10-17T09:43:06.735Z,16.40
2022-10-17T09:45:43.600Z,14.40
2022-10-17T09:48:19.615Z,17.70
2022-10-17T09:50:57.835Z,13.90
2022-10-17T09:53:38.793Z,14.40
2022-10-17T09:56:13.314Z,16.90
2022-10-17T09:58:43.310Z,17.10
2022-10-17T10:01:23.991Z,16.20
2022-10-17T10:04:10.904Z,17.00
2022-10-17T10:06:41.063Z,17.30
2022-10-17T10:09:23.147Z,15.60
2022-10-17T10:11:55.026Z,18.30
2022-10-17T10:14:28.282Z,17.50
2022-10-17T10:16:56.658Z,14.40
2022-10-17T10:19:31.221Z,14.60
2022-10-17T10:22:02.867Z,18.50
2022-10-17T10:24:32.501Z,16.20
2022-10-17T10:27:04.727Z,16.20
2022-10-17T10:29:35.601Z,16.20
2022-10-17T10:32:13.398Z,16.60
2022-10-17T10:34:49.414Z,15.20
2022-10-17T10:37:21.434Z,16.20
2022-10-17T10:39:52.031Z,20.60
2022-10-17T10:42:27.260Z,16.30
2022-10-17T10:44:59.729Z,15.70
2022-10-17T10:47:30.418Z,16.00
2022-10-17T10:50:18.462Z,17.50
2022-10-17T10:52:51.931Z,19.50
2022-10-17T10:55:27.706Z,17.00
2022-10-17T10:58:01.662Z,14.70
2022-10-17T11:00:34.321Z,18.30
2022-10-17T11:03:13.574Z,17.50
2022-10-17T11:05:48.247Z,19.00
2022-10-17T11:08:23.338Z,18.90
2022-10-17T11:11:13.484Z,17.20
2022-10-17T11:13:49.561Z,16.90
2022-10-17T11:16:29.097Z,16.90
2022-10-17T11:21:38.912Z,17.00
2022-10-17T11:24:16.404Z,17.60
2022-10-17T11:26:50.401Z,16.70
2022-10-17T11:29:18.826Z,19.80
2022-10-17T11:31:52.341Z,18.40
2022-10-17T11:34:25.217Z,17.10
2022-10-17T11:37:00.538Z,17.20
2022-10-17T11:39:33.911Z,16.30
2022-10-17T11:42:06.787Z,17.00
2022-10-17T11:44:39.466Z,16.70
2022-10-17T11:47:18.191Z,18.30
2022-10-17T11:49:51.362Z,16.30
2022-10-17T11:52:51.833Z,20.90
2022-10-17T11:55:24.997Z,19.90
2022-10-17T11:58:02.818Z,16.00
2022-10-17T12:00:48.817Z,17.50
2022-10-17T12:03:39.097Z,17.00
2022-10-17T12:06:15.881Z,19.30
2022-10-17T12:08:53.055Z,17.80
2022-10-17T12:11:34.352Z,19.20
2022-10-17T12:14:05.808Z,16.30
2022-10-17T12:16:43.496Z,17.60
2022-10-17T12:19:34.066Z,22.30
2022-10-17T12:22:18.765Z,18.50
2022-10-17T12:24:56.893Z,18.50
2022-10-17T12:27:38.136Z,18.50
2022-10-17T12:30:19.875Z,15.80
2022-10-17T12:33:21.589Z,20.80
2022-10-17T12:35:51.705Z,20.70
2022-10-17T12:38:23.776Z,17.00
2022-10-17T12:41:03.098Z,17.60
2022-10-17T12:43:47.041Z,16.20
2022-10-17T12:46:47.239Z,18.00
2022-10-17T12:49:38.598Z,19.00
2022-10-17T12:52:48.183Z,17.90
2022-10-17T12:55:19.015Z,16.60
2022-10-17T12:58:10.716Z,16.60
2022-10-17T13:01:19.125Z,16.00
2022-10-17T13:03:45.898Z,17.50
2022-10-17T13:06:20.147Z,15.30
2022-10-17T13:09:03.853Z,15.30
2022-10-17T13:11:36.029Z,18.50
2022-10-17T13:14:12.260Z,17.80
2022-10-17T13:16:53.717Z,18.20
2022-10-17T13:19:23.817Z,15.60
2022-10-17T13:21:55.518Z,18.90
2022-10-17T13:24:30.906Z,16.20
2022-10-17T13:27:01.033Z,18.20
2022-10-17T13:29:33.542Z,18.40
2022-10-17T13:32:05.135Z,21.90
2022-10-17T13:34:34.485Z,18.40
2022-10-17T13:37:06.893Z,24.50
2022-10-17T13:40:00.231Z,18.90
2022-10-17T13:42:31.769Z,17.80
2022-10-17T13:45:01.549Z,18.40
2022-10-17T13:47:33.688Z,18.40
2022-10-17T13:50:02.442Z,17.20
2022-10-17T13:52:31.436Z,20.20
2022-10-17T13:55:09.542Z,15.30
2022-10-17T14:00:15.610Z,22.10
2022-10-17T14:02:44.863Z,19.40
2022-10-17T14:05:19.481Z,19.70
2022-10-17T14:10:43.362Z,16.70
2022-10-17T14:13:21.761Z,18.70
2022-10-17T14:15:51.539Z,17.00
2022-10-17T14:18:23.879Z,19.50
2022-10-17T14:23:43.802Z,19.20
2022-10-17T14:26:15.668Z,20.10
2022-10-17T14:28:46.327Z,17.00
2022-10-17T14:31:25.637Z,20.10
2022-10-17T14:33:55.415Z,19.10
2022-10-17T14:36:34.464Z,16.40
2022-10-17T14:39:05.380Z,19.00
2022-10-17T14:41:42.974Z,18.00
2022-10-17T14:44:21.566Z,18.40
2022-10-17T14:46:54.929Z,17.80
2022-10-17T14:49:33.436Z,19.00
2022-10-17T14:52:20.419Z,18.30
2022-10-17T14:54:51.270Z,19.30
2022-10-17T14:57:24.581Z,21.60
2022-10-17T14:59:56.013Z,16.90
2022-10-17T15:02:26.221Z,18.40
2022-10-17T15:04:55.173Z,17.80
2022-10-17T15:07:24.268Z,21.80
2022-10-17T15:09:53.214Z,18.60
2022-10-17T15:12:24.257Z,18.60
2022-10-17T15:14:53.505Z,19.50
2022-10-17T15:17:25.317Z,19.10
2022-10-17T15:19:54.256Z,21.30
2022-10-17T15:22:23.423Z,23.10
2022-10-17T15:24:51.798Z,19.00
2022-10-17T15:27:22.270Z,25.00
2022-10-17T15:29:52.598Z,20.70
2022-10-17T15:32:20.942Z,21.30
2022-10-17T15:34:49.424Z,25.60
2022-10-17T15:37:21.463Z,21.40
2022-10-17T15:39:53.844Z,23.20
2022-10-17T15:42:28.009Z,22.70
2022-10-17T15:44:57.487Z,23.50
2022-10-17T15:47:30.382Z,21.90
2022-10-17T15:50:01.375Z,16.20
2022-10-17T15:52:32.393Z,20.50
2022-10-17T15:55:04.312Z,18.10
2022-10-17T15:57:38.363Z,21.60
2022-10-17T16:00:16.737Z,24.40
2022-10-17T16:02:46.683Z,20.40
2022-10-17T16:05:17.326Z,20.70
2022-10-17T16:07:47.175Z,24.70
2022-10-17T16:10:16.317Z,20.60
2022-10-17T16:12:45.072Z,18.80
2022-10-17T16:15:15.323Z,18.00
2022-10-17T16:17:44.394Z,25.10
2022-10-17T16:20:13.709Z,20.70
2022-10-17T16:22:44.415Z,20.60
2022-10-17T16:25:20.591Z,22.50
2022-10-17T16:27:51.130Z,29.10
2022-10-17T16:32:51.263Z,21.40
2022-10-17T16:35:22.803Z,26.20
2022-10-17T16:37:51.021Z,26.90
2022-10-17T16:40:20.638Z,25.80
2022-10-17T16:42:49.704Z,23.10
2022-10-17T16:45:21.727Z,34.30
2022-10-17T16:47:52.491Z,32.50
2022-10-17T16:50:20.761Z,27.20
2022-10-17T16:52:49.190Z,28.90
2022-10-17T16:55:18.706Z,35.70
2022-10-17T16:57:48.395Z,25.80
2022-10-17T17:00:18.487Z,26.30
2022-10-17T17:02:48.427Z,35.90
2022-10-17T17:05:16.832Z,32.80
2022-10-17T17:07:47.361Z,29.90
2022-10-17T17:10:15.887Z,32.50
2022-10-17T17:12:44.570Z,31.20
2022-10-17T17:15:13.720Z,31.80
2022-10-17T17:17:50.555Z,27.40
2022-10-17T17:20:21.366Z,28.10
2022-10-17T17:22:51.422Z,32.00
2022-10-17T17:25:20.301Z,26.20
2022-10-17T17:27:51.949Z,28.90
2022-10-17T17:30:20.417Z,29.50
2022-10-17T17:32:49.235Z,31.10
2022-10-17T17:35:18.848Z,29.60
2022-10-17T17:37:48.065Z,26.60
2022-10-17T17:40:18.043Z,25.40
2022-10-17T17:42:47.288Z,26.90
2022-10-17T17:45:16.661Z,24.40
2022-10-17T17:47:47.114Z,27.80
2022-10-17T17:50:16.361Z,29.00
2022-10-17T17:52:50.106Z,26.40
2022-10-17T17:55:19.260Z,25.90
2022-10-17T17:57:48.077Z,28.60
2022-10-17T18:00:17.701Z,26.20
2022-10-17T18:02:47.038Z,27.50
2022-10-17T18:05:15.675Z,26.50
2022-10-17T18:07:44.407Z,30.60
2022-10-17T18:13:02.499Z,29.50
2022-10-17T18:15:31.698Z,31.20
2022-10-17T18:18:04.688Z,35.10
2022-10-17T18:20:35.019Z,32.90
2022-10-17T18:23:04.413Z,32.20
2022-10-17T18:25:33.205Z,27.00
2022-10-17T18:28:02.695Z,29.40
2022-10-17T18:30:36.025Z,32.20
2022-10-17T18:33:09.960Z,32.40
2022-10-17T18:35:38.618Z,29.70
2022-10-17T18:38:07.650Z,31.00
2022-10-17T18:40:37.202Z,28.30
2022-10-17T18:43:06.717Z,27.50
2022-10-17T18:45:37.933Z,29.50
2022-10-17T18:48:09.438Z,28.20
2022-10-17T18:50:41.273Z,29.30
2022-10-17T18:53:10.059Z,33.10
2022-10-17T18:55:40.991Z,31.20
2022-10-17T18:58:09.431Z,33.90
2022-10-17T19:00:37.714Z,36.40
2022-10-17T19:03:08.855Z,30.40
2022-10-17T19:05:40.301Z,29.30
2022-10-17T19:08:08.603Z,33.70
2022-10-17T19:10:39.090Z,25.80
2022-10-17T19:13:07.800Z,26.80
2022-10-17T19:15:37.307Z,26.30
2022-10-17T19:18:07.192Z,28.80
2022-10-17T19:20:35.395Z,26.20
2022-10-17T19:23:04.291Z,29.00
2022-10-17T19:25:33.691Z,27.50
2022-10-17T19:28:02.024Z,26.80
2022-10-17T19:30:30.624Z,25.40
2022-10-17T19:33:01.085Z,26.20
2022-10-17T19:35:30.195Z,22.80
2022-10-17T19:38:00.084Z,28.10
2022-10-17T19:40:28.581Z,23.40
2022-10-17T19:42:57.590Z,27.20
2022-10-17T19:45:26.751Z,26.80
2022-10-17T19:47:55.236Z,26.30
2022-10-17T19:50:23.612Z,26.80
2022-10-17T19:52:51.949Z,22.70
2022-10-17T19:55:20.785Z,28.60
2022-10-17T19:57:50.076Z,25.80
2022-10-17T20:00:18.796Z,26.50
2022-10-17T20:02:47.113Z,27.10
2022-10-17T20:05:18.888Z,25.20
2022-10-17T20:07:48.048Z,26.20
2022-10-17T20:10:18.827Z,25.20
2022-10-17T20:12:47.285Z,30.30
2022-10-17T20:15:15.661Z,28.60
2022-10-17T20:17:47.320Z,28.20
2022-10-17T20:20:16.364Z,28.60
2022-10-17T20:22:45.439Z,24.90
2022-10-17T20:25:13.849Z,27.50
2022-10-17T20:27:42.253Z,23.30
2022-10-17T20:30:11.361Z,26.90
2022-10-17T20:32:39.859Z,24.60
2022-10-17T20:35:09.246Z,28.80
2022-10-17T20:37:41.690Z,31.70
2022-10-17T20:43:02.229Z,27.70
2022-10-17T20:45:50.303Z,22.10
2022-10-17T20:48:19.378Z,23.90
2022-10-17T20:50:48.846Z,23.30
2022-10-17T20:53:36.125Z,25.50
2022-10-17T20:56:07.905Z,22.40
2022-10-17T20:58:36.175Z,24.90
2022-10-17T21:01:09.289Z,26.30
2022-10-17T21:03:42.307Z,24.70
2022-10-17T21:06:15.099Z,25.40
2022-10-17T21:08:44.384Z,23.10
2022-10-17T21:11:14.219Z,24.30
2022-10-17T21:13:43.619Z,30.10
2022-10-17T21:16:13.957Z,25.70
2022-10-17T21:18:42.938Z,23.10
2022-10-17T21:21:13.817Z,24.10
2022-10-17T21:23:44.517Z,24.10
2022-10-17T21:26:13.771Z,24.70
2022-10-17T21:28:43.548Z,27.30
2022-10-17T21:31:14.493Z,28.50
2022-10-17T21:33:44.283Z,26.10
2022-10-17T21:36:15.667Z,24.20
2022-10-17T21:38:45.245Z,24.30
2022-10-17T21:41:16.212Z,27.50
2022-10-17T21:43:45.277Z,25.70
2022-10-17T21:46:17.651Z,21.50
2022-10-17T21:48:51.197Z,23.30
2022-10-17T21:51:21.359Z,26.60
2022-10-17T21:53:50.614Z,27.30
2022-10-17T21:56:20.690Z,24.60
2022-10-17T21:58:49.979Z,24.20
2022-10-17T22:01:20.949Z,28.20
2022-10-17T22:03:51.666Z,26.30
2022-10-17T22:06:39.166Z,29.50
2022-10-17T22:09:11.818Z,23.30
2022-10-17T22:11:40.821Z,28.80
2022-10-17T22:14:13.872Z,28.00
2022-10-17T22:16:44.431Z,34.10
2022-10-17T22:19:14.569Z,24.60
2022-10-17T22:21:43.151Z,23.00
2022-10-17T22:24:13.774Z,24.20
2022-10-17T22:26:42.594Z,25.50
2022-10-17T22:29:11.900Z,24.30
2022-10-17T22:31:41.369Z,28.10
2022-10-17T22:34:12.515Z,26.20
2022-10-17T22:36:41.848Z,24.70
2022-10-17T22:39:10.747Z,26.80
2022-10-17T22:41:39.391Z,27.90
2022-10-17T22:44:07.916Z,24.70
2022-10-17T22:46:36.421Z,25.20
2022-10-17T22:49:05.762Z,28.70
2022-10-17T22:51:34.182Z,29.20
2022-10-17T22:54:02.458Z,25.20
2022-10-17T22:56:30.633Z,26.20
2022-10-17T22:59:01.606Z,26.30
2022-10-17T23:01:30.005Z,25.00
2022-10-17T23:03:59.293Z,20.10
2022-10-17T23:06:27.852Z,23.10
2022-10-17T23:08:56.014Z,23.60
2022-10-17T23:11:24.465Z,20.80
2022-10-17T23:13:53.222Z,24.00
2022-10-17T23:16:21.410Z,17.70
2022-10-17T23:18:49.627Z,18.60
2022-10-17T23:21:18.161Z,19.10
2022-10-17T23:23:46.591Z,20.30
2022-10-17T23:26:15.427Z,17.60
2022-10-17T23:28:44.088Z,17.30
2022-10-17T23:31:14.718Z,17.30
2022-10-17T23:33:45.634Z,17.90
2022-10-17T23:36:15.349Z,16.70
2022-10-17T23:38:45.621Z,15.70
2022-10-17T23:41:15.071Z,16.40
2022-10-17T23:43:43.902Z,14.70
2022-10-17T23:46:12.644Z,16.40
2022-10-17T23:48:44.056Z,14.70
2022-10-17T23:51:12.868Z,13.60
2022-10-17T23:53:42.912Z,13.70
2022-10-17T23:56:11.400Z,16.10
2022-10-17T23:58:40.968Z,16.30
